createdAt,value
2023-05-17T00:01:56.608Z,2.15
2023-05-17T00:04:23.738Z,2.30
2023-05-17T00:06:50.891Z,2.23
2023-05-17T00:09:18.022Z,2.50
2023-05-17T00:11:45.281Z,2.58
2023-05-17T00:14:12.818Z,2.47
2023-05-17T00:16:39.901Z,2.57
2023-05-17T00:19:07.063Z,2.67
2023-05-17T00:21:35.416Z,2.70
2023-05-17T00:24:02.586Z,2.47
2023-05-17T00:26:29.715Z,2.20
2023-05-17T00:28:56.732Z,2.53
2023-05-17T00:31:23.745Z,2.90
2023-05-17T00:33:50.850Z,2.43
2023-05-17T00:36:17.857Z,2.67
2023-05-17T00:38:44.997Z,2.67
2023-05-17T00:41:13.043Z,2.60
2023-05-17T00:43:40.418Z,3.40
2023-05-17T00:46:07.565Z,2.70
2023-05-17T00:48:34.911Z,3.17
2023-05-17T00:51:02.238Z,2.63
2023-05-17T00:53:30.377Z,2.63
2023-05-17T00:55:57.555Z,3.63
2023-05-17T00:58:25.158Z,2.60
2023-05-17T01:00:52.925Z,2.93
2023-05-17T01:03:22.575Z,2.17
2023-05-17T01:05:51.338Z,2.90
2023-05-17T01:08:18.392Z,2.90
2023-05-17T01:11:19.408Z,3.40
2023-05-17T01:14:03.007Z,3.07
2023-05-17T01:17:20.561Z,3.03
2023-05-17T01:20:09.305Z,2.70
2023-05-17T01:22:57.380Z,3.20
2023-05-17T01:25:59.025Z,3.13
2023-05-17T01:28:27.608Z,3.03
2023-05-17T01:30:55.918Z,2.90
2023-05-17T01:33:23.536Z,2.93
2023-05-17T01:35:50.594Z,2.80
2023-05-17T01:38:17.739Z,2.77
2023-05-17T01:41:31.076Z,2.80
2023-05-17T01:44:13.663Z,3.20
2023-05-17T01:46:43.845Z,2.73
2023-05-17T01:49:29.945Z,3.33
2023-05-17T01:52:12.236Z,3.50
2023-05-17T01:54:56.225Z,3.80
2023-05-17T01:57:32.570Z,2.93
2023-05-17T02:00:02.319Z,3.10
2023-05-17T02:02:32.508Z,3.20
2023-05-17T02:04:59.692Z,3.30
2023-05-17T02:07:26.872Z,2.67
2023-05-17T02:09:53.911Z,3.00
2023-05-17T02:12:21.068Z,3.23
2023-05-17T02:14:48.293Z,2.67
2023-05-17T02:17:15.473Z,2.90
2023-05-17T02:19:42.578Z,2.90
2023-05-17T02:22:09.620Z,3.07
2023-05-17T02:24:36.813Z,2.63
2023-05-17T02:27:04.532Z,3.20
2023-05-17T02:29:31.836Z,3.40
2023-05-17T02:31:58.959Z,3.40
2023-05-17T02:34:26.658Z,3.20
2023-05-17T02:36:53.895Z,3.40
2023-05-17T02:39:20.979Z,3.10
2023-05-17T02:41:48.119Z,3.37
2023-05-17T02:44:15.188Z,3.10
2023-05-17T02:46:42.296Z,3.33
2023-05-17T02:49:09.378Z,3.00
2023-05-17T02:51:36.379Z,3.70
2023-05-17T02:54:03.430Z,3.33
2023-05-17T02:56:31.052Z,2.90
2023-05-17T02:58:59.757Z,2.70
2023-05-17T03:01:27.685Z,2.90
2023-05-17T03:03:54.924Z,3.70
2023-05-17T03:06:22.166Z,3.70
2023-05-17T03:08:49.269Z,3.80
2023-05-17T03:11:16.347Z,3.33
2023-05-17T03:13:43.560Z,4.43
2023-05-17T03:16:10.717Z,3.10
2023-05-17T03:18:37.985Z,3.47
2023-05-17T03:21:05.060Z,4.43
2023-05-17T03:23:32.119Z,3.10
2023-05-17T03:25:59.514Z,3.90
2023-05-17T03:28:26.934Z,3.47
2023-05-17T03:30:54.840Z,3.37
2023-05-17T03:33:22.117Z,3.43
2023-05-17T03:35:49.369Z,3.50
2023-05-17T03:38:16.962Z,3.80
2023-05-17T03:40:44.158Z,3.73
2023-05-17T03:43:14.557Z,3.63
2023-05-17T03:45:46.380Z,4.45
2023-05-17T03:48:13.785Z,3.90
2023-05-17T03:50:43.813Z,4.10
2023-05-17T03:53:11.075Z,4.00
2023-05-17T03:55:38.240Z,4.63
2023-05-17T03:58:05.316Z,5.82
2023-05-17T04:00:32.584Z,4.33
2023-05-17T04:02:59.819Z,4.03
2023-05-17T04:05:27.241Z,4.50
2023-05-17T04:07:54.835Z,4.47
2023-05-17T04:10:22.464Z,4.22
2023-05-17T04:12:50.066Z,4.35
2023-05-17T04:15:17.155Z,5.25
2023-05-17T04:17:44.316Z,5.05
2023-05-17T04:20:12.477Z,4.72
2023-05-17T04:22:39.803Z,5.05
2023-05-17T04:25:08.362Z,5.13
2023-05-17T04:27:35.957Z,5.25
2023-05-17T04:30:04.389Z,5.20
2023-05-17T04:32:34.301Z,5.18
2023-05-17T04:35:02.007Z,4.57
2023-05-17T04:37:29.085Z,4.70
2023-05-17T04:39:56.404Z,4.55
2023-05-17T04:42:23.640Z,4.72
2023-05-17T04:44:50.769Z,5.20
2023-05-17T04:47:18.921Z,4.68
2023-05-17T04:49:46.081Z,5.00
2023-05-17T04:52:13.203Z,5.05
2023-05-17T04:54:40.639Z,4.30
2023-05-17T04:57:07.885Z,4.80
2023-05-17T04:59:34.976Z,4.80
2023-05-17T05:02:02.022Z,4.90
2023-05-17T05:04:29.107Z,5.57
2023-05-17T05:06:56.182Z,6.32
2023-05-17T05:09:23.263Z,6.22
2023-05-17T05:11:50.302Z,5.35
2023-05-17T05:14:17.378Z,5.60
2023-05-17T05:16:44.485Z,5.30
2023-05-17T05:19:11.797Z,5.38
2023-05-17T05:21:38.985Z,5.93
2023-05-17T05:24:06.392Z,6.72
2023-05-17T05:26:33.554Z,5.20
2023-05-17T05:29:00.614Z,6.32
2023-05-17T05:31:28.263Z,5.65
2023-05-17T05:33:55.472Z,6.45
2023-05-17T05:36:22.549Z,5.43
2023-05-17T05:38:50.073Z,5.00
2023-05-17T05:41:17.174Z,5.75
2023-05-17T05:43:44.195Z,4.15
2023-05-17T05:46:11.295Z,6.28
2023-05-17T05:48:41.861Z,5.45
2023-05-17T05:51:09.250Z,5.30
2023-05-17T05:53:36.712Z,6.57
2023-05-17T05:56:04.572Z,6.65
2023-05-17T05:58:32.408Z,5.55
2023-05-17T06:01:00.355Z,4.90
2023-05-17T06:03:27.572Z,4.97
2023-05-17T06:05:55.592Z,5.03
2023-05-17T06:08:22.783Z,5.07
2023-05-17T06:10:49.934Z,4.57
2023-05-17T06:13:17.020Z,4.75
2023-05-17T06:15:44.126Z,5.72
2023-05-17T06:18:11.397Z,4.50
2023-05-17T06:20:38.475Z,4.38
2023-05-17T06:23:06.706Z,4.53
2023-05-17T06:25:33.776Z,4.30
2023-05-17T06:28:03.010Z,3.38
2023-05-17T06:30:31.293Z,3.95
2023-05-17T06:32:58.853Z,3.85
2023-05-17T06:35:26.394Z,3.25
2023-05-17T06:37:53.612Z,3.38
2023-05-17T06:40:21.130Z,3.00
2023-05-17T06:42:48.326Z,2.90
2023-05-17T06:45:15.497Z,2.95
2023-05-17T06:47:42.856Z,2.25
2023-05-17T06:50:10.572Z,1.92
2023-05-17T06:52:37.736Z,2.05
2023-05-17T06:55:05.806Z,2.22
2023-05-17T06:57:32.940Z,2.25
2023-05-17T06:59:59.952Z,1.98
2023-05-17T07:02:26.949Z,2.35
2023-05-17T07:04:54.099Z,2.30
2023-05-17T07:07:22.174Z,2.50
2023-05-17T07:09:49.309Z,2.33
2023-05-17T07:12:16.446Z,2.00
2023-05-17T07:14:43.595Z,2.38
2023-05-17T07:17:11.876Z,2.55
2023-05-17T07:19:39.052Z,2.25
2023-05-17T07:22:06.501Z,2.28
2023-05-17T07:24:33.616Z,2.58
2023-05-17T07:27:00.670Z,2.80
2023-05-17T07:29:27.871Z,2.72
2023-05-17T07:31:54.907Z,2.13
2023-05-17T07:34:22.003Z,2.00
2023-05-17T07:36:49.133Z,2.42
2023-05-17T07:39:16.325Z,2.08
2023-05-17T07:41:43.434Z,1.95
2023-05-17T07:44:10.627Z,1.98
2023-05-17T07:46:37.640Z,1.88
2023-05-17T07:49:05.170Z,2.00
2023-05-17T07:51:32.316Z,1.98
2023-05-17T07:53:59.441Z,2.10
2023-05-17T07:56:26.528Z,1.63
2023-05-17T07:58:53.588Z,1.88
2023-05-17T08:01:20.627Z,1.88
2023-05-17T08:03:48.380Z,1.85
2023-05-17T08:06:17.080Z,1.80
2023-05-17T08:08:44.974Z,1.98
2023-05-17T08:11:13.620Z,2.20
2023-05-17T08:13:40.715Z,2.30
2023-05-17T08:16:14.008Z,1.70
2023-05-17T08:18:43.451Z,1.63
2023-05-17T08:21:11.457Z,2.03
2023-05-17T08:23:39.343Z,1.90
2023-05-17T08:26:06.880Z,1.75
2023-05-17T08:28:34.072Z,2.10
2023-05-17T08:31:01.258Z,2.17
2023-05-17T08:33:28.635Z,1.80
2023-05-17T08:35:58.052Z,1.50
2023-05-17T08:38:25.280Z,1.73
2023-05-17T08:40:56.843Z,1.42
2023-05-17T08:43:27.550Z,1.60
2023-05-17T08:45:57.916Z,1.90
2023-05-17T08:48:27.622Z,2.03
2023-05-17T08:50:55.984Z,1.63
2023-05-17T08:53:23.782Z,1.35
2023-05-17T08:55:53.832Z,1.90
2023-05-17T08:58:26.882Z,1.55
2023-05-17T09:00:56.241Z,1.65
2023-05-17T09:03:25.179Z,1.70
2023-05-17T09:05:53.806Z,1.67
2023-05-17T09:08:23.151Z,1.80
2023-05-17T09:10:50.769Z,2.40
2023-05-17T09:13:17.986Z,1.33
2023-05-17T09:15:48.305Z,1.25
2023-05-17T09:18:18.603Z,1.33
2023-05-17T09:20:51.863Z,1.58
2023-05-17T09:23:22.387Z,1.67
2023-05-17T09:25:49.919Z,1.60
2023-05-17T09:28:22.052Z,1.15
2023-05-17T09:30:50.169Z,1.30
2023-05-17T09:33:21.898Z,1.30
2023-05-17T09:35:49.079Z,1.63
2023-05-17T09:38:16.264Z,1.73
2023-05-17T09:40:48.490Z,1.23
2023-05-17T09:43:23.076Z,1.40
2023-05-17T09:45:57.816Z,1.98
2023-05-17T09:48:30.905Z,1.77
2023-05-17T09:50:58.062Z,1.80
2023-05-17T09:53:32.916Z,1.75
2023-05-17T09:56:03.103Z,1.23
2023-05-17T09:58:33.388Z,1.33
2023-05-17T10:01:08.589Z,1.70
2023-05-17T10:03:37.654Z,1.50
2023-05-17T10:06:13.282Z,1.30
2023-05-17T10:08:46.457Z,1.50
2023-05-17T10:11:14.044Z,1.50
2023-05-17T10:14:15.491Z,2.10
2023-05-17T10:16:43.386Z,1.65
2023-05-17T10:19:14.797Z,1.50
2023-05-17T10:21:43.262Z,1.63
2023-05-17T10:24:11.456Z,1.40
2023-05-17T10:26:40.144Z,1.67
2023-05-17T10:29:08.029Z,1.70
2023-05-17T10:31:36.569Z,1.33
2023-05-17T10:34:08.853Z,1.52
2023-05-17T10:36:36.460Z,1.42
2023-05-17T10:39:09.663Z,1.58
2023-05-17T10:41:44.420Z,1.40
2023-05-17T10:44:16.200Z,1.92
2023-05-17T10:46:56.161Z,1.55
2023-05-17T10:49:37.135Z,1.50
2023-05-17T10:52:16.463Z,1.40
2023-05-17T10:54:45.625Z,1.20
2023-05-17T10:57:50.549Z,1.38
2023-05-17T11:00:28.053Z,1.67
2023-05-17T11:03:30.154Z,1.48
2023-05-17T11:06:24.457Z,2.20
2023-05-17T11:09:18.754Z,1.20
2023-05-17T11:12:07.650Z,1.27
2023-05-17T11:14:53.305Z,1.13
2023-05-17T11:17:24.506Z,1.40
2023-05-17T11:19:55.008Z,1.83
2023-05-17T11:22:26.815Z,1.13
2023-05-17T11:24:57.731Z,1.30
2023-05-17T11:27:28.790Z,1.23
2023-05-17T11:29:57.598Z,1.35
2023-05-17T11:32:32.810Z,1.35
2023-05-17T11:35:03.557Z,1.60
2023-05-17T11:37:31.483Z,1.60
2023-05-17T11:40:07.164Z,1.10
2023-05-17T11:42:38.373Z,1.20
2023-05-17T11:45:07.239Z,1.52
2023-05-17T11:47:38.730Z,1.65
2023-05-17T11:50:06.829Z,1.40
2023-05-17T11:52:34.923Z,1.50
2023-05-17T11:55:02.895Z,1.55
2023-05-17T11:57:31.788Z,1.38
2023-05-17T12:00:05.124Z,1.30
2023-05-17T12:02:33.175Z,2.15
2023-05-17T12:05:00.552Z,0.88
2023-05-17T12:07:28.633Z,1.25
2023-05-17T12:09:55.740Z,1.23
2023-05-17T12:12:23.684Z,1.50
2023-05-17T12:14:51.046Z,1.33
2023-05-17T12:17:38.659Z,1.20
2023-05-17T12:20:10.554Z,1.30
2023-05-17T12:22:57.193Z,1.80
2023-05-17T12:25:29.732Z,1.45
2023-05-17T12:28:22.267Z,1.10
2023-05-17T12:30:56.017Z,1.00
2023-05-17T12:33:23.523Z,1.10
2023-05-17T12:35:51.565Z,1.20
2023-05-17T12:38:19.895Z,1.00
2023-05-17T12:40:47.490Z,1.25
2023-05-17T12:43:14.579Z,1.30
2023-05-17T12:45:44.758Z,1.40
2023-05-17T12:48:11.885Z,1.20
2023-05-17T12:50:44.495Z,1.30
2023-05-17T12:53:11.807Z,1.13
2023-05-17T12:55:41.085Z,1.10
2023-05-17T12:58:09.186Z,1.42
2023-05-17T13:00:36.625Z,0.90
2023-05-17T13:03:10.904Z,0.90
2023-05-17T13:05:39.862Z,1.52
2023-05-17T13:08:20.958Z,1.35
2023-05-17T13:10:48.028Z,1.05
2023-05-17T13:13:22.778Z,1.20
2023-05-17T13:15:50.508Z,1.20
2023-05-17T13:18:18.318Z,1.10
2023-05-17T13:20:45.501Z,1.10
2023-05-17T13:23:14.840Z,1.08
2023-05-17T13:25:41.854Z,1.00
2023-05-17T13:28:08.962Z,1.42
2023-05-17T13:30:37.433Z,1.23
2023-05-17T13:33:05.246Z,0.98
2023-05-17T13:35:32.383Z,1.10
2023-05-17T13:37:59.396Z,1.00
2023-05-17T13:40:26.622Z,1.00
2023-05-17T13:42:53.847Z,1.08
2023-05-17T13:45:20.868Z,1.20
2023-05-17T13:47:48.112Z,1.23
2023-05-17T13:50:17.479Z,1.15
2023-05-17T13:52:44.593Z,1.05
2023-05-17T13:55:11.634Z,1.10
2023-05-17T13:57:38.701Z,1.20
2023-05-17T14:00:06.961Z,1.17
2023-05-17T14:02:34.090Z,1.35
2023-05-17T14:05:01.782Z,0.93
2023-05-17T14:07:29.259Z,1.10
2023-05-17T14:09:56.360Z,1.20
2023-05-17T14:12:23.549Z,0.90
2023-05-17T14:14:50.774Z,1.00
2023-05-17T14:17:18.947Z,1.10
2023-05-17T14:19:46.337Z,1.13
2023-05-17T14:22:13.964Z,1.00
2023-05-17T14:24:41.110Z,1.08
2023-05-17T14:27:08.380Z,1.40
2023-05-17T14:29:35.537Z,1.20
2023-05-17T14:32:03.264Z,1.25
2023-05-17T14:34:31.092Z,1.13
2023-05-17T14:36:58.286Z,1.17
2023-05-17T14:39:26.287Z,1.20
2023-05-17T14:41:53.323Z,1.33
2023-05-17T14:44:20.415Z,1.10
2023-05-17T14:46:47.529Z,1.30
2023-05-17T14:49:14.933Z,1.27
2023-05-17T14:51:42.761Z,1.30
2023-05-17T14:54:11.124Z,1.42
2023-05-17T14:56:39.353Z,1.35
2023-05-17T14:59:06.664Z,1.35
2023-05-17T15:01:33.996Z,1.60
2023-05-17T15:04:01.916Z,1.40
2023-05-17T15:06:30.292Z,1.50
2023-05-17T15:08:57.575Z,1.08
2023-05-17T15:11:25.962Z,1.30
2023-05-17T15:13:53.361Z,1.25
2023-05-17T15:16:21.054Z,1.10
2023-05-17T15:18:48.627Z,2.15
2023-05-17T15:21:20.001Z,1.20
2023-05-17T15:23:50.126Z,1.40
2023-05-17T15:26:17.619Z,1.30
2023-05-17T15:28:44.699Z,1.25
2023-05-17T15:31:11.770Z,1.30
2023-05-17T15:33:40.294Z,1.40
2023-05-17T15:36:07.919Z,1.20
2023-05-17T15:38:35.261Z,1.50
2023-05-17T15:41:07.582Z,1.50
2023-05-17T15:43:35.549Z,1.55
2023-05-17T15:46:02.826Z,1.35
2023-05-17T15:48:30.228Z,1.42
2023-05-17T15:50:58.310Z,1.20
2023-05-17T15:53:27.398Z,1.75
2023-05-17T15:55:55.090Z,1.30
2023-05-17T15:58:27.939Z,1.42
2023-05-17T16:00:56.066Z,1.50
2023-05-17T16:03:23.146Z,1.45
2023-05-17T16:05:50.321Z,1.30
2023-05-17T16:08:17.685Z,1.33
2023-05-17T16:10:45.220Z,1.40
2023-05-17T16:13:14.397Z,1.30
2023-05-17T16:15:41.639Z,1.50
2023-05-17T16:18:10.780Z,1.10
2023-05-17T16:20:38.070Z,1.48
2023-05-17T16:23:06.329Z,1.55
2023-05-17T16:25:34.363Z,1.55
2023-05-17T16:28:01.683Z,1.48
2023-05-17T16:30:29.406Z,2.80
2023-05-17T16:32:56.621Z,2.80
2023-05-17T16:35:23.928Z,2.28
2023-05-17T16:37:51.494Z,1.48
2023-05-17T16:40:18.622Z,1.20
2023-05-17T16:42:45.811Z,1.70
2023-05-17T16:45:12.822Z,1.30
2023-05-17T16:47:40.076Z,2.00
2023-05-17T16:50:07.966Z,1.20
2023-05-17T16:52:35.063Z,1.90
2023-05-17T16:55:04.232Z,1.30
2023-05-17T16:57:31.991Z,1.27
2023-05-17T17:00:01.468Z,1.50
2023-05-17T17:02:28.917Z,1.10
2023-05-17T17:04:58.627Z,1.58
2023-05-17T17:07:27.059Z,1.52
2023-05-17T17:09:54.267Z,1.27
2023-05-17T17:12:25.339Z,1.50
2023-05-17T17:14:54.311Z,1.17
2023-05-17T17:17:22.083Z,1.42
2023-05-17T17:19:49.268Z,1.48
2023-05-17T17:22:17.095Z,1.40
2023-05-17T17:24:45.593Z,1.58
2023-05-17T17:27:12.698Z,1.42
2023-05-17T17:29:39.787Z,1.50
2023-05-17T17:32:08.275Z,1.63
2023-05-17T17:34:35.659Z,2.17
2023-05-17T17:37:02.815Z,1.40
2023-05-17T17:39:29.939Z,1.45
2023-05-17T17:41:57.000Z,1.73
2023-05-17T17:44:24.682Z,1.95
2023-05-17T17:46:51.991Z,1.75
2023-05-17T17:49:19.172Z,1.60
2023-05-17T17:51:46.402Z,1.80
2023-05-17T17:54:13.608Z,1.58
2023-05-17T17:56:41.873Z,1.70
2023-05-17T17:59:09.106Z,1.40
2023-05-17T18:01:37.622Z,1.83
2023-05-17T18:04:06.384Z,1.33
2023-05-17T18:06:33.895Z,1.45
2023-05-17T18:09:00.946Z,1.33
2023-05-17T18:11:28.151Z,1.67
2023-05-17T18:13:55.743Z,1.50
2023-05-17T18:16:22.792Z,1.48
2023-05-17T18:18:49.859Z,1.55
2023-05-17T18:21:17.254Z,1.55
2023-05-17T18:23:44.325Z,2.13
2023-05-17T18:26:12.758Z,1.58
2023-05-17T18:28:42.844Z,1.40
2023-05-17T18:31:10.714Z,1.50
2023-05-17T18:33:37.841Z,1.50
2023-05-17T18:36:05.583Z,1.85
2023-05-17T18:38:32.665Z,1.50
2023-05-17T18:40:59.689Z,1.85
2023-05-17T18:43:29.202Z,1.58
2023-05-17T18:45:56.394Z,1.50
2023-05-17T18:48:24.670Z,1.60
2023-05-17T18:50:51.875Z,1.48
2023-05-17T18:53:19.084Z,1.52
2023-05-17T18:55:46.204Z,1.60
2023-05-17T18:58:13.449Z,1.80
2023-05-17T19:00:40.755Z,2.00
2023-05-17T19:03:07.996Z,1.77
2023-05-17T19:05:35.179Z,1.75
2023-05-17T19:08:03.783Z,2.38
2023-05-17T19:10:31.186Z,1.80
2023-05-17T19:12:58.450Z,1.60
2023-05-17T19:15:25.772Z,1.70
2023-05-17T19:17:53.193Z,1.65
2023-05-17T19:20:20.650Z,1.38
2023-05-17T19:22:47.843Z,1.70
2023-05-17T19:25:16.529Z,1.80
2023-05-17T19:27:44.483Z,2.35
2023-05-17T19:30:12.563Z,2.17
2023-05-17T19:32:40.125Z,1.35
2023-05-17T19:35:08.021Z,1.40
2023-05-17T19:37:35.122Z,1.95
2023-05-17T19:40:05.184Z,2.05
2023-05-17T19:42:32.373Z,1.52
2023-05-17T19:44:59.430Z,1.80
2023-05-17T19:47:26.617Z,2.15
2023-05-17T19:49:53.772Z,1.88
2023-05-17T19:52:21.185Z,1.95
2023-05-17T19:54:48.265Z,1.70
2023-05-17T19:57:15.275Z,1.83
2023-05-17T19:59:42.397Z,2.13
2023-05-17T20:02:09.930Z,1.75
2023-05-17T20:04:37.037Z,1.63
2023-05-17T20:07:04.152Z,2.38
2023-05-17T20:09:32.213Z,1.80
2023-05-17T20:11:59.529Z,2.15
2023-05-17T20:14:27.689Z,1.80
2023-05-17T20:16:55.108Z,1.80
2023-05-17T20:19:22.474Z,1.88
2023-05-17T20:21:49.676Z,1.88
2023-05-17T20:24:16.804Z,1.92
2023-05-17T20:26:46.800Z,2.40
2023-05-17T20:29:13.962Z,2.67
2023-05-17T20:31:41.162Z,2.90
2023-05-17T20:34:08.298Z,1.90
2023-05-17T20:36:35.553Z,2.08
2023-05-17T20:39:03.900Z,1.73
2023-05-17T20:41:31.034Z,1.88
2023-05-17T20:43:58.196Z,1.98
2023-05-17T20:46:25.647Z,2.20
2023-05-17T20:48:53.708Z,1.83
2023-05-17T20:51:22.397Z,2.47
2023-05-17T20:53:49.576Z,2.30
2023-05-17T20:56:19.292Z,2.58
2023-05-17T20:58:48.943Z,2.63
2023-05-17T21:01:16.152Z,2.55
2023-05-17T21:03:43.811Z,2.20
2023-05-17T21:06:11.030Z,2.30
2023-05-17T21:08:38.510Z,2.25
2023-05-17T21:11:05.677Z,2.58
2023-05-17T21:13:32.816Z,2.20
2023-05-17T21:15:59.972Z,2.20
2023-05-17T21:18:28.497Z,2.15
2023-05-17T21:20:55.677Z,2.13
2023-05-17T21:23:22.789Z,2.20
2023-05-17T21:25:49.876Z,2.30
2023-05-17T21:28:17.005Z,2.00
2023-05-17T21:30:44.318Z,2.55
2023-05-17T21:33:11.484Z,2.90
2023-05-17T21:35:38.642Z,2.20
2023-05-17T21:38:05.712Z,2.70
2023-05-17T21:40:33.214Z,2.25
2023-05-17T21:43:00.596Z,2.20
2023-05-17T21:45:28.882Z,2.28
2023-05-17T21:47:56.308Z,2.35
2023-05-17T21:50:27.209Z,2.33
2023-05-17T21:52:54.450Z,2.40
2023-05-17T21:55:21.944Z,2.13
2023-05-17T21:57:49.168Z,2.05
2023-05-17T22:00:16.630Z,2.20
2023-05-17T22:02:45.201Z,1.98
2023-05-17T22:05:13.176Z,2.10
2023-05-17T22:07:40.740Z,2.15
2023-05-17T22:10:10.007Z,3.05
2023-05-17T22:12:38.392Z,2.50
2023-05-17T22:15:06.552Z,2.80
2023-05-17T22:17:43.227Z,2.28
2023-05-17T22:20:19.666Z,2.67
2023-05-17T22:22:46.817Z,1.92
2023-05-17T22:25:15.620Z,2.05
2023-05-17T22:27:42.865Z,2.30
2023-05-17T22:30:10.547Z,2.15
2023-05-17T22:32:37.766Z,2.63
2023-05-17T22:35:05.702Z,2.50
2023-05-17T22:37:33.017Z,3.00
2023-05-17T22:40:00.131Z,2.38
2023-05-17T22:42:28.399Z,2.03
2023-05-17T22:44:55.845Z,2.22
2023-05-17T22:47:23.343Z,2.10
2023-05-17T22:49:52.550Z,2.83
2023-05-17T22:52:20.063Z,1.83
2023-05-17T22:54:47.317Z,2.35
2023-05-17T22:57:14.602Z,2.40
2023-05-17T22:59:43.916Z,2.80
2023-05-17T23:02:12.340Z,2.65
2023-05-17T23:04:40.492Z,2.50
2023-05-17T23:07:09.972Z,2.35
2023-05-17T23:09:40.876Z,2.05
2023-05-17T23:12:09.067Z,2.63
2023-05-17T23:14:36.857Z,2.35
2023-05-17T23:17:05.224Z,2.90
2023-05-17T23:19:35.877Z,2.80
2023-05-17T23:22:04.053Z,3.03
2023-05-17T23:24:31.525Z,2.50
2023-05-17T23:26:58.874Z,2.42
2023-05-17T23:29:27.639Z,2.78
2023-05-17T23:31:54.768Z,2.70
2023-05-17T23:34:22.182Z,2.60
2023-05-17T23:36:49.214Z,3.03
2023-05-17T23:39:16.407Z,3.10
2023-05-17T23:41:43.647Z,2.70
2023-05-17T23:44:11.294Z,2.60
2023-05-17T23:46:38.394Z,2.92
2023-05-17T23:49:05.910Z,2.42
2023-05-17T23:51:34.865Z,2.85
2023-05-17T23:54:02.344Z,2.78
2023-05-17T23:56:29.516Z,2.80
2023-05-17T23:58:56.532Z,2.70
